SBI5724 ZBAD-UNNT
Flight info
| Callsign | SBI5724 |
|---|---|
| Flight time | N/A |
| Altitude | 36100 |
| Route | IDKEX B339 ASILA A575 INTIK Y651 ENGUG Y746 DARNO/K0835F361 A575 NOSPI R241 BEGIL |
| Aircraft | B738/M-SDE2E3FGHIRWXY/LB1 |
Departure
| Time | 2026-05-06 10:58 |
|---|---|
| Airport | Beijing Daxing International Airport (ZBAD) |
Arrival
| Time | N/A |
|---|---|
| Airport | Novosibirsk Tolmachevo Airport (UNNT) |
| Time | Latitude | Longitude | Altitude | Speed | Heading |
|---|---|---|---|---|---|
| 2026-05-06 10:26 | 39.50419 | 116.41035 | 94 ft | 0 kts | 46° |
| 2026-05-06 10:45 | 39.50404 | 116.41016 | 72 ft | 4 kts | 43° |
| 2026-05-06 10:45 | 39.50384 | 116.40992 | 94 ft | 4 kts | 41° |
| 2026-05-06 10:45 | 39.50368 | 116.40974 | 95 ft | 3 kts | 45° |
| 2026-05-06 10:46 | 39.50350 | 116.40948 | 94 ft | 4 kts | 52° |
| 2026-05-06 10:46 | 39.50333 | 116.40921 | 93 ft | 4 kts | 46° |
| 2026-05-06 10:46 | 39.50314 | 116.40905 | 95 ft | 3 kts | 355° |
| 2026-05-06 10:46 | 39.50291 | 116.40908 | 93 ft | 4 kts | 354° |
| 2026-05-06 10:47 | 39.50269 | 116.40911 | 93 ft | 0 kts | 354° |
| 2026-05-06 10:49 | 39.50270 | 116.40911 | 93 ft | 1 kts | 354° |
| 2026-05-06 10:49 | 39.50294 | 116.40908 | 93 ft | 8 kts | 354° |
| 2026-05-06 10:49 | 39.50364 | 116.40898 | 93 ft | 10 kts | 353° |
| 2026-05-06 10:49 | 39.50435 | 116.40888 | 94 ft | 10 kts | 354° |
| 2026-05-06 10:50 | 39.50504 | 116.40887 | 97 ft | 10 kts | 11° |
| 2026-05-06 10:50 | 39.50577 | 116.40903 | 95 ft | 11 kts | 4° |
| 2026-05-06 10:50 | 39.50642 | 116.40868 | 94 ft | 11 kts | 296° |
| 2026-05-06 10:50 | 39.50614 | 116.40782 | 94 ft | 11 kts | 226° |
| 2026-05-06 10:51 | 39.50547 | 116.40719 | 96 ft | 12 kts | 213° |
| 2026-05-06 10:51 | 39.50491 | 116.40638 | 94 ft | 13 kts | 264° |
| 2026-05-06 10:51 | 39.50484 | 116.40533 | 94 ft | 11 kts | 263° |
| 2026-05-06 10:51 | 39.50502 | 116.40440 | 94 ft | 11 kts | 314° |
| 2026-05-06 10:52 | 39.50568 | 116.40373 | 96 ft | 13 kts | 322° |
| 2026-05-06 10:52 | 39.50640 | 116.40299 | 95 ft | 13 kts | 307° |
| 2026-05-06 10:52 | 39.50643 | 116.40195 | 95 ft | 11 kts | 264° |
| 2026-05-06 10:52 | 39.50635 | 116.40099 | 94 ft | 10 kts | 264° |
| 2026-05-06 10:53 | 39.50657 | 116.40019 | 95 ft | 10 kts | 332° |
| 2026-05-06 10:53 | 39.50732 | 116.39999 | 94 ft | 11 kts | 353° |
| 2026-05-06 10:53 | 39.50811 | 116.39987 | 94 ft | 12 kts | 353° |
| 2026-05-06 10:53 | 39.50904 | 116.39975 | 95 ft | 14 kts | 352° |
| 2026-05-06 10:54 | 39.50998 | 116.39961 | 94 ft | 13 kts | 354° |
| 2026-05-06 10:54 | 39.51087 | 116.39942 | 95 ft | 13 kts | 341° |
| 2026-05-06 10:54 | 39.51167 | 116.39909 | 93 ft | 12 kts | 13° |
| 2026-05-06 10:54 | 39.51252 | 116.39919 | 95 ft | 12 kts | 353° |
| 2026-05-06 10:55 | 39.51333 | 116.39906 | 96 ft | 11 kts | 352° |
| 2026-05-06 10:55 | 39.51414 | 116.39892 | 95 ft | 13 kts | 352° |
| 2026-05-06 10:55 | 39.51528 | 116.39876 | 94 ft | 20 kts | 353° |
| 2026-05-06 10:55 | 39.51669 | 116.39852 | 94 ft | 15 kts | 351° |
| 2026-05-06 10:56 | 39.51705 | 116.39753 | 94 ft | 14 kts | 261° |
| 2026-05-06 10:56 | 39.51697 | 116.39655 | 96 ft | 10 kts | 250° |
| 2026-05-06 10:56 | 39.51656 | 116.39634 | 96 ft | 0 kts | 174° |
| 2026-05-06 10:57 | 39.51642 | 116.39636 | 95 ft | 17 kts | 174° |
| 2026-05-06 10:57 | 39.51247 | 116.39697 | 94 ft | 96 kts | 173° |
| 2026-05-06 10:57 | 39.50346 | 116.39846 | 96 ft | 163 kts | 169° |
| 2026-05-06 10:57 | 39.49078 | 116.40025 | 501 ft | 192 kts | 175° |
| 2026-05-06 10:58 | 39.47774 | 116.40109 | 1824 ft | 178 kts | 177° |
| 2026-05-06 10:58 | 39.46550 | 116.40346 | 2700 ft | 178 kts | 174° |
| 2026-05-06 10:58 | 39.45349 | 116.40654 | 3488 ft | 175 kts | 175° |
| 2026-05-06 10:58 | 39.44104 | 116.40847 | 3970 ft | 187 kts | 179° |
| 2026-05-06 10:59 | 39.42705 | 116.41030 | 4016 ft | 217 kts | 178° |
| 2026-05-06 10:59 | 39.41105 | 116.41248 | 3978 ft | 242 kts | 177° |
| 2026-05-06 10:59 | 39.39433 | 116.41502 | 4223 ft | 248 kts | 176° |
| 2026-05-06 10:59 | 39.37710 | 116.41799 | 4802 ft | 254 kts | 171° |
| 2026-05-06 11:00 | 39.36072 | 116.42860 | 5306 ft | 274 kts | 143° |
| 2026-05-06 11:00 | 39.34911 | 116.44848 | 6078 ft | 285 kts | 115° |
| 2026-05-06 11:00 | 39.34581 | 116.47413 | 6692 ft | 298 kts | 87° |
| 2026-05-06 11:00 | 39.34822 | 116.50078 | 7433 ft | 300 kts | 83° |
| 2026-05-06 11:01 | 39.35102 | 116.52766 | 8142 ft | 304 kts | 82° |
| 2026-05-06 11:01 | 39.35561 | 116.55425 | 8871 ft | 304 kts | 64° |
| 2026-05-06 11:01 | 39.36757 | 116.57654 | 9564 ft | 303 kts | 39° |
| 2026-05-06 11:01 | 39.38441 | 116.59256 | 10308 ft | 300 kts | 29° |
| 2026-05-06 11:02 | 39.40201 | 116.60718 | 10962 ft | 303 kts | 29° |
| 2026-05-06 11:02 | 39.42020 | 116.62236 | 11261 ft | 321 kts | 30° |
| 2026-05-06 11:02 | 39.43952 | 116.63870 | 11430 ft | 342 kts | 30° |
| 2026-05-06 11:02 | 39.45844 | 116.65894 | 11652 ft | 364 kts | 44° |
| 2026-05-06 11:03 | 39.47546 | 116.68378 | 12109 ft | 373 kts | 46° |
| 2026-05-06 11:03 | 39.49252 | 116.70933 | 12768 ft | 375 kts | 46° |
| 2026-05-06 11:03 | 39.50987 | 116.73477 | 13443 ft | 377 kts | 45° |
| 2026-05-06 11:03 | 39.52751 | 116.76018 | 14003 ft | 382 kts | 45° |
| 2026-05-06 11:04 | 39.54524 | 116.78618 | 14532 ft | 387 kts | 50° |
| 2026-05-06 11:04 | 39.55864 | 116.81677 | 15077 ft | 394 kts | 63° |
| 2026-05-06 11:04 | 39.57003 | 116.84871 | 15638 ft | 397 kts | 63° |
| 2026-05-06 11:04 | 39.58204 | 116.88169 | 16178 ft | 401 kts | 63° |
| 2026-05-06 11:05 | 39.59412 | 116.91402 | 16714 ft | 405 kts | 62° |
| 2026-05-06 11:05 | 39.60656 | 116.94695 | 17254 ft | 408 kts | 62° |
| 2026-05-06 11:05 | 39.62012 | 116.97937 | 17751 ft | 410 kts | 51° |
| 2026-05-06 11:05 | 39.64034 | 117.00527 | 18220 ft | 408 kts | 31° |
| 2026-05-06 11:06 | 39.66568 | 117.02103 | 18708 ft | 403 kts | 13° |
| 2026-05-06 11:06 | 39.69303 | 117.02669 | 19206 ft | 397 kts | 355° |
| 2026-05-06 11:06 | 39.72050 | 117.02390 | 19737 ft | 395 kts | 349° |
| 2026-05-06 11:06 | 39.74787 | 117.01956 | 20192 ft | 398 kts | 349° |
| 2026-05-06 11:07 | 39.77545 | 117.01487 | 20649 ft | 401 kts | 349° |
| 2026-05-06 11:07 | 39.80319 | 117.01021 | 21132 ft | 403 kts | 349° |
| 2026-05-06 11:07 | 39.83118 | 117.00567 | 21606 ft | 405 kts | 349° |
| 2026-05-06 11:07 | 39.85892 | 117.00132 | 22050 ft | 407 kts | 349° |
| 2026-05-06 11:08 | 39.88711 | 116.99701 | 22489 ft | 410 kts | 349° |
| 2026-05-06 11:08 | 39.91558 | 116.99270 | 22911 ft | 413 kts | 349° |
| 2026-05-06 11:08 | 39.94422 | 116.98839 | 23345 ft | 415 kts | 349° |
| 2026-05-06 11:08 | 39.97295 | 116.98407 | 23705 ft | 417 kts | 349° |
| 2026-05-06 11:09 | 40.00193 | 116.97970 | 24076 ft | 419 kts | 349° |
| 2026-05-06 11:09 | 40.03098 | 116.97532 | 24462 ft | 420 kts | 349° |
| 2026-05-06 11:09 | 40.06003 | 116.97093 | 24838 ft | 421 kts | 349° |
| 2026-05-06 11:09 | 40.08928 | 116.96651 | 25186 ft | 423 kts | 349° |
| 2026-05-06 11:10 | 40.11862 | 116.96206 | 25531 ft | 425 kts | 349° |
| 2026-05-06 11:10 | 40.14809 | 116.95759 | 25878 ft | 426 kts | 349° |
| 2026-05-06 11:10 | 40.17759 | 116.95312 | 26223 ft | 428 kts | 349° |
| 2026-05-06 11:10 | 40.20724 | 116.94862 | 26633 ft | 427 kts | 349° |
| 2026-05-06 11:11 | 40.23671 | 116.94416 | 27137 ft | 424 kts | 349° |
| 2026-05-06 11:11 | 40.26555 | 116.93979 | 27677 ft | 421 kts | 349° |
| 2026-05-06 11:11 | 40.29459 | 116.93538 | 28171 ft | 418 kts | 349° |
| 2026-05-06 11:11 | 40.32353 | 116.93097 | 28560 ft | 418 kts | 348° |